Time;durP1;ratioP1;P1;durP2;ratioP2;P2;SDS_P1;SDS_P2;PMS_P1;PMS_P2;Temp;Humidity;BMP_temperature;BMP_pressure;BME280_temperature;BME280_humidity;BME280_pressure;Samples;Min_cycle;Max_cycle;Signal;HPM_P1;HPM_P2
2021/12/01 00:01:39;;;;;;;0.80;0.80;;;2.90;99.90;;;;;;5025727;28;20140;-62
2021/12/01 00:04:06;;;;;;;2.55;0.80;;;2.80;99.90;;;;;;5015615;28;20107;-62
2021/12/01 00:06:34;;;;;;;1.02;0.93;;;2.80;99.90;;;;;;5015213;28;20065;-62
2021/12/01 00:09:03;;;;;;;1.10;0.95;;;2.70;99.90;;;;;;5015309;28;20048;-62
2021/12/01 00:11:30;;;;;;;2.35;1.00;;;2.70;99.90;;;;;;5015077;28;20041;-62
2021/12/01 00:13:56;;;;;;;1.08;1.00;;;2.70;99.90;;;;;;5015394;28;20135;-62
2021/12/01 00:16:23;;;;;;;;;;;2.60;99.90;;;;;;5016117;28;20339;-62
2021/12/01 00:18:50;;;;;;;4.32;0.98;;;2.60;99.90;;;;;;5015789;28;19925;-61
2021/12/01 00:21:17;;;;;;;1.65;0.90;;;2.50;99.90;;;;;;5013770;28;20463;-61
2021/12/01 00:23:44;;;;;;;;;;;2.50;99.90;;;;;;5015970;28;20558;-62
2021/12/01 00:26:10;;;;;;;1.35;0.80;;;2.50;99.90;;;;;;5008227;28;20332;-61
2021/12/01 00:28:37;;;;;;;;;;;2.50;99.90;;;;;;5015731;28;20425;-61
2021/12/01 00:31:04;;;;;;;2.72;0.70;;;2.50;99.90;;;;;;5015009;28;19970;-61
2021/12/01 00:33:31;;;;;;;2.35;0.90;;;2.50;99.90;;;;;;5018514;28;20064;-62
2021/12/01 00:35:58;;;;;;;0.90;0.88;;;2.50;99.90;;;;;;5018310;28;20103;-62
2021/12/01 00:38:26;;;;;;;8.00;3.20;;;2.50;99.90;;;;;;5018502;28;20211;-61
2021/12/01 00:40:53;;;;;;;3.25;2.13;;;2.50;99.90;;;;;;5018645;28;20049;-61
2021/12/01 00:43:23;;;;;;;1.65;1.10;;;2.50;99.90;;;;;;5018576;28;20594;-62
2021/12/01 00:45:56;;;;;;;1.00;0.90;;;2.40;99.90;;;;;;5026110;28;20045;-62
2021/12/01 00:48:25;;;;;;;1.10;1.00;;;2.40;99.90;;;;;;5018887;28;20068;-62
2021/12/01 00:50:53;;;;;;;0.90;0.80;;;2.40;99.90;;;;;;5028902;28;20652;-62
2021/12/01 00:53:20;;;;;;;0.90;0.90;;;2.40;99.90;;;;;;5038439;28;20094;-62
2021/12/01 00:55:47;;;;;;;1.92;1.63;;;2.40;99.90;;;;;;5034145;28;20709;-62
2021/12/01 00:58:14;;;;;;;1.65;1.00;;;2.40;99.90;;;;;;5023501;28;20547;-62
2021/12/01 01:00:43;;;;;;;1.60;1.50;;;2.50;99.90;;;;;;5017651;28;20102;-62
2021/12/01 01:03:10;;;;;;;1.55;1.33;;;2.40;99.90;;;;;;5018013;28;20629;-62
2021/12/01 01:05:38;;;;;;;1.25;1.15;;;2.40;99.90;;;;;;5017598;28;20152;-62
2021/12/01 01:08:06;;;;;;;1.48;1.33;;;2.50;99.90;;;;;;5018095;28;20057;-62
2021/12/01 01:18:38;;;;;;;1.35;1.25;;;2.60;99.90;;;;;;5019046;28;19924;-63
2021/12/01 01:21:06;;;;;;;2.25;1.70;;;2.60;99.90;;;;;;5019289;28;20385;-63
2021/12/01 01:23:34;;;;;;;1.75;1.55;;;2.60;99.90;;;;;;5018454;28;20053;-62
2021/12/01 01:26:02;;;;;;;2.72;1.67;;;2.60;99.90;;;;;;5025321;28;20077;-63
2021/12/01 01:28:28;;;;;;;1.42;1.30;;;2.60;99.90;;;;;;5018128;28;20107;-63
2021/12/01 01:30:56;;;;;;;1.92;1.73;;;2.60;99.90;;;;;;5017701;28;20073;-63
2021/12/01 01:33:23;;;;;;;1.90;1.80;;;2.60;99.90;;;;;;5017522;28;20462;-63
2021/12/01 01:35:50;;;;;;;;;;;2.60;99.90;;;;;;5017930;28;20049;-63
2021/12/01 01:38:17;;;;;;;2.00;1.52;;;2.60;99.90;;;;;;5017831;28;19935;-63
2021/12/01 01:40:43;;;;;;;;;;;2.60;99.90;;;;;;5023338;28;20551;-63
2021/12/01 01:43:11;;;;;;;3.25;1.30;;;2.60;99.90;;;;;;5016247;28;20377;-63
2021/12/01 01:45:39;;;;;;;4.60;1.80;;;2.60;99.90;;;;;;5023494;28;20041;-64
2021/12/01 01:48:13;;;;;;;;;;;2.60;99.90;;;;;;5019105;28;20072;-63
2021/12/01 01:50:43;;;;;;;1.35;1.25;;;2.60;99.90;;;;;;5025849;28;20228;-64
2021/12/01 01:53:16;;;;;;;1.67;1.58;;;2.70;99.90;;;;;;5018324;28;20045;-63
2021/12/01 01:55:46;;;;;;;2.08;1.70;;;2.70;99.90;;;;;;5025062;28;20052;-64
2021/12/01 01:58:14;;;;;;;1.88;1.60;;;2.70;99.90;;;;;;5030980;28;20630;-63
2021/12/01 02:00:51;;;;;;;1.27;1.17;;;2.80;99.90;;;;;;5018095;28;20046;-63
2021/12/01 02:03:23;;;;;;;1.52;1.42;;;2.80;99.90;;;;;;5017322;28;20461;-63
2021/12/01 02:05:51;;;;;;;1.88;1.55;;;2.70;99.90;;;;;;5017786;28;20038;-63
2021/12/01 02:08:20;;;;;;;2.00;1.52;;;2.70;99.90;;;;;;5016942;28;20463;-63
2021/12/01 02:10:51;;;;;;;1.85;1.65;;;2.70;99.90;;;;;;5016737;28;20041;-63
2021/12/01 02:13:19;;;;;;;1.38;1.27;;;2.70;99.90;;;;;;5016634;28;20061;-64
2021/12/01 02:15:49;;;;;;;1.70;1.35;;;2.70;99.90;;;;;;5016506;28;20138;-63
2021/12/01 02:18:17;;;;;;;1.92;1.73;;;2.70;99.90;;;;;;5017086;28;20049;-63
2021/12/01 02:21:11;;;;;;;2.92;1.60;;;2.70;99.90;;;;;;5016301;28;20045;-64
2021/12/01 02:23:46;;;;;;;1.38;1.25;;;2.80;99.90;;;;;;5016405;28;20243;-63
2021/12/01 02:26:15;;;;;;;2.53;1.38;;;2.80;99.90;;;;;;5024177;28;20103;-63
2021/12/01 02:28:44;;;;;;;1.85;1.52;;;2.90;99.90;;;;;;5017105;28;20585;-63
2021/12/01 02:31:11;;;;;;;1.60;1.40;;;2.90;99.90;;;;;;5016154;28;20496;-64
2021/12/01 02:33:39;;;;;;;2.85;1.50;;;2.90;99.90;;;;;;5016445;28;20044;-63
2021/12/01 02:36:09;;;;;;;1.83;1.60;;;2.90;99.90;;;;;;5014637;28;20583;-63
2021/12/01 02:38:37;;;;;;;1.55;1.45;;;2.90;99.90;;;;;;5016880;28;20042;-63
2021/12/01 02:41:04;;;;;;;1.38;1.27;;;2.80;99.90;;;;;;5015990;28;20037;-63
2021/12/01 02:43:31;;;;;;;;;;;2.80;99.90;;;;;;5016407;28;20049;-63
2021/12/01 02:45:58;;;;;;;1.88;1.77;;;2.80;99.90;;;;;;5024002;28;19964;-64
2021/12/01 02:48:25;;;;;;;2.35;2.00;;;2.80;99.90;;;;;;5016138;28;20056;-64
2021/12/01 02:50:53;;;;;;;;;;;2.70;99.90;;;;;;5027720;28;20400;-63
2021/12/01 02:53:21;;;;;;;2.85;2.13;;;2.70;99.90;;;;;;5016350;28;20425;-63
2021/12/01 02:55:57;;;;;;;3.08;2.20;;;2.70;99.90;;;;;;5024192;28;20045;-63
2021/12/01 02:58:26;;;;;;;3.00;2.13;;;2.70;99.90;;;;;;5020239;28;20041;-63
2021/12/01 03:00:55;;;;;;;3.95;2.50;;;2.70;99.90;;;;;;5016120;28;20470;-64
2021/12/01 03:03:23;;;;;;;2.75;2.33;;;2.70;99.90;;;;;;5015854;28;20033;-63
2021/12/01 03:05:50;;;;;;;4.00;2.17;;;2.60;99.90;;;;;;5016217;28;20134;-63
2021/12/01 03:08:19;;;;;;;2.58;2.22;;;2.70;99.90;;;;;;5016000;28;20041;-64
2021/12/01 03:10:49;;;;;;;2.70;2.47;;;2.60;99.90;;;;;;5015329;28;20111;-63
2021/12/01 03:13:18;;;;;;;5.53;2.53;;;2.60;99.90;;;;;;5015692;28;20341;-63
2021/12/01 03:15:46;;;;;;;3.92;2.60;;;2.60;99.90;;;;;;5015679;28;20069;-63
2021/12/01 03:18:14;;;;;;;3.33;2.47;;;2.60;99.90;;;;;;5005867;28;20064;-64
2021/12/01 03:20:42;;;;;;;4.40;2.25;;;2.60;99.90;;;;;;5015484;28;20079;-63
2021/12/01 03:23:09;;;;;;;3.85;2.78;;;2.70;99.90;;;;;;5015810;28;20546;-63
2021/12/01 03:25:37;;;;;;;4.18;3.15;;;2.60;99.90;;;;;;5023159;28;20033;-63
2021/12/01 03:28:06;;;;;;;2.97;2.33;;;2.70;99.90;;;;;;5015752;28;20091;-63
2021/12/01 03:30:36;;;;;;;3.40;2.45;;;2.70;99.90;;;;;;5015298;28;20045;-64
2021/12/01 03:33:12;;;;;;;2.63;2.40;;;2.80;99.90;;;;;;5015181;28;20079;-63
2021/12/01 03:35:42;;;;;;;2.78;2.50;;;2.70;99.90;;;;;;5015377;28;20115;-63
2021/12/01 03:38:09;;;;;;;3.30;2.78;;;2.70;99.90;;;;;;5016023;28;20522;-63
2021/12/01 03:40:36;;;;;;;3.10;2.80;;;2.70;99.90;;;;;;5015607;28;20095;-63
2021/12/01 03:43:04;;;;;;;4.03;3.30;;;2.60;99.90;;;;;;5016719;28;20096;-63
2021/12/01 03:45:31;;;;;;;5.47;3.60;;;2.60;99.90;;;;;;5018213;28;20336;-63
2021/12/01 03:47:58;;;;;;;4.45;3.35;;;2.60;99.90;;;;;;5025523;28;20044;-64
2021/12/01 03:50:25;;;;;;;4.47;3.75;;;2.60;99.90;;;;;;5022120;28;20110;-63
2021/12/01 03:52:52;;;;;;;5.43;4.25;;;2.60;99.90;;;;;;5022669;28;20053;-63
2021/12/01 03:55:19;;;;;;;3.92;3.50;;;2.50;99.90;;;;;;5015391;28;20285;-63
2021/12/01 03:57:46;;;;;;;5.55;4.05;;;2.60;99.90;;;;;;5015765;28;20123;-63
2021/12/01 04:00:16;;;;;;;5.40;4.20;;;2.60;99.90;;;;;;5017292;28;20329;-63
2021/12/01 04:02:44;;;;;;;4.75;3.88;;;2.60;99.90;;;;;;5017482;28;20136;-63
2021/12/01 04:05:12;;;;;;;4.65;3.85;;;2.60;99.90;;;;;;5015782;28;20052;-63
2021/12/01 04:07:40;;;;;;;5.72;4.30;;;2.50;99.90;;;;;;5018047;28;20104;-63
2021/12/01 04:10:11;;;;;;;5.85;4.72;;;2.50;99.90;;;;;;5019446;28;20041;-63
2021/12/01 04:12:38;;;;;;;5.15;4.35;;;2.50;99.90;;;;;;5018429;28;20053;-63
2021/12/01 04:15:06;;;;;;;6.72;4.78;;;2.50;99.90;;;;;;5020544;28;20112;-63
2021/12/01 04:17:32;;;;;;;7.03;5.18;;;2.50;99.90;;;;;;5018770;28;20072;-64
2021/12/01 04:19:59;;;;;;;;;;;2.50;99.90;;;;;;5019651;28;20080;-63
2021/12/01 04:22:26;;;;;;;8.00;5.32;;;2.50;99.90;;;;;;5019573;28;20312;-63
2021/12/01 04:24:53;;;;;;;7.13;5.38;;;2.50;99.90;;;;;;5019372;28;20350;-63
2021/12/01 04:27:20;;;;;;;;;;;2.50;99.90;;;;;;5020274;28;20785;-63
2021/12/01 04:29:46;;;;;;;8.63;5.30;;;2.50;99.90;;;;;;5018845;28;20325;-63
2021/12/01 04:32:13;;;;;;;12.73;5.88;;;2.50;99.90;;;;;;5018783;28;20088;-63
2021/12/01 04:34:40;;;;;;;10.90;5.28;;;2.50;99.90;;;;;;5018572;28;20532;-63
2021/12/01 04:37:07;;;;;;;;;;;2.50;99.90;;;;;;5017949;28;20100;-63
2021/12/01 04:39:33;;;;;;;8.20;5.50;;;2.40;99.90;;;;;;5018362;28;19966;-63
2021/12/01 04:42:07;;;;;;;;;;;2.50;99.90;;;;;;5019098;28;20057;-64
2021/12/01 04:44:43;;;;;;;7.47;5.20;;;2.40;99.90;;;;;;5024144;28;19924;-63
2021/12/01 04:47:13;;;;;;;6.95;4.82;;;2.40;99.90;;;;;;5019954;28;20095;-63
2021/12/01 04:49:41;;;;;;;6.68;4.85;;;2.40;99.90;;;;;;5020336;28;20541;-63
2021/12/01 04:52:10;;;;;;;7.88;5.57;;;2.40;99.90;;;;;;5020967;28;20095;-63
2021/12/01 04:54:38;;;;;;;15.57;5.68;;;2.40;99.90;;;;;;5018104;28;20544;-63
2021/12/01 04:57:06;;;;;;;6.97;5.15;;;2.40;99.90;;;;;;5017850;28;20053;-63
2021/12/01 04:59:33;;;;;;;8.00;5.80;;;2.50;99.90;;;;;;5018667;28;20060;-63
2021/12/01 05:02:01;;;;;;;8.50;5.70;;;2.50;99.90;;;;;;5017728;28;20488;-63
2021/12/01 05:04:28;;;;;;;8.02;5.22;;;2.50;99.90;;;;;;5018430;28;20097;-63
2021/12/01 05:06:55;;;;;;;7.38;4.75;;;2.50;99.90;;;;;;5029234;28;20053;-64
2021/12/01 05:09:21;;;;;;;;;;;2.50;99.90;;;;;;5018916;28;20041;-63
2021/12/01 05:11:48;;;;;;;6.78;4.38;;;2.50;99.90;;;;;;5017756;28;20273;-64
2021/12/01 05:14:15;;;;;;;7.07;5.25;;;2.50;99.90;;;;;;5018705;28;20045;-63
2021/12/01 05:16:43;;;;;;;7.03;5.10;;;2.50;99.90;;;;;;5029540;28;20499;-63
2021/12/01 05:19:10;;;;;;;6.90;4.65;;;2.50;99.90;;;;;;5020885;28;20281;-63
2021/12/01 05:21:41;;;;;;;6.43;4.85;;;2.50;99.90;;;;;;5018054;28;20586;-63
2021/12/01 05:24:08;;;;;;;5.43;4.60;;;2.50;99.90;;;;;;5018358;28;20100;-65
2021/12/01 05:26:36;;;;;;;6.97;5.25;;;2.40;99.90;;;;;;5017819;28;20584;-64
2021/12/01 05:29:05;;;;;;;5.32;4.35;;;2.40;99.90;;;;;;5018001;28;20590;-63
2021/12/01 05:31:32;;;;;;;8.82;5.25;;;2.30;99.90;;;;;;5028170;28;20037;-64
2021/12/01 05:33:59;;;;;;;7.10;5.03;;;2.30;99.90;;;;;;5018348;28;20121;-64
2021/12/01 05:36:25;;;;;;;8.15;5.57;;;2.30;99.90;;;;;;5028604;28;20103;-64
2021/12/01 05:38:52;;;;;;;;;;;2.30;99.90;;;;;;5018826;28;20679;-63
2021/12/01 05:41:19;;;;;;;9.52;5.50;;;2.20;99.90;;;;;;5016980;28;20422;-64
2021/12/01 05:43:46;;;;;;;;;;;2.30;99.90;;;;;;5018162;28;20045;-62
2021/12/01 05:46:12;;;;;;;9.10;6.13;;;2.20;99.90;;;;;;5028392;28;19978;-62
2021/12/01 05:48:39;;;;;;;6.70;5.30;;;2.20;99.90;;;;;;5018292;28;20120;-62
2021/12/01 05:51:06;;;;;;;;;;;2.20;99.90;;;;;;5020269;28;20049;-62
2021/12/01 05:53:33;;;;;;;7.57;5.20;;;2.10;99.90;;;;;;5017822;28;19929;-62
2021/12/01 05:56:00;;;;;;;;;;;2.10;99.90;;;;;;5018129;28;20471;-63
2021/12/01 05:58:27;;;;;;;10.07;5.82;;;2.20;99.90;;;;;;5017549;28;19929;-63
2021/12/01 06:00:54;;;;;;;8.77;6.32;;;2.20;99.90;;;;;;5016852;28;20041;-63
2021/12/01 06:03:21;;;;;;;10.85;7.18;;;2.20;99.90;;;;;;5017442;28;20077;-64
2021/12/01 06:05:47;;;;;;;;;;;2.30;99.90;;;;;;5013663;28;20154;-63
2021/12/01 06:08:14;;;;;;;8.88;5.85;;;2.30;99.90;;;;;;5028001;28;20019;-63
2021/12/01 06:10:41;;;;;;;8.35;6.00;;;2.30;99.90;;;;;;5016584;28;20139;-64
2021/12/01 06:13:11;;;;;;;8.27;5.97;;;2.20;99.90;;;;;;5018120;28;20356;-66
2021/12/01 06:15:39;;;;;;;9.88;6.18;;;2.30;99.90;;;;;;5014960;28;20038;-66
2021/12/01 06:18:06;;;;;;;9.20;6.25;;;2.30;99.90;;;;;;5015798;28;20048;-67
2021/12/01 06:20:32;;;;;;;;;;;2.30;99.90;;;;;;5016786;28;20041;-63
2021/12/01 06:22:59;;;;;;;8.23;6.05;;;2.30;99.90;;;;;;5015877;28;20467;-52
2021/12/01 06:25:27;;;;;;;8.35;6.25;;;2.30;99.90;;;;;;5023573;28;20037;-53
2021/12/01 06:27:55;;;;;;;11.32;7.35;;;2.40;99.90;;;;;;5019401;28;20045;-52
2021/12/01 06:30:24;;;;;;;9.32;6.43;;;2.40;99.90;;;;;;5021988;28;20087;-52
2021/12/01 06:32:53;;;;;;;8.95;6.07;;;2.50;99.90;;;;;;5020365;28;20049;-53
2021/12/01 06:35:20;;;;;;;8.48;6.45;;;2.50;99.90;;;;;;5021400;28;20048;-51
2021/12/01 06:37:48;;;;;;;9.25;5.68;;;2.60;99.90;;;;;;5024636;28;20343;-50
2021/12/01 06:40:14;;;;;;;7.13;4.85;;;2.60;99.90;;;;;;5015688;28;20064;-52
2021/12/01 06:42:41;;;;;;;;;;;2.70;99.90;;;;;;5016599;28;20571;-51
2021/12/01 06:45:10;;;;;;;5.15;4.10;;;2.70;99.90;;;;;;5016737;28;19928;-52
2021/12/01 06:47:39;;;;;;;6.88;4.57;;;2.80;99.90;;;;;;5024446;28;20306;-53
2021/12/01 06:50:07;;;;;;;5.63;4.40;;;2.80;99.90;;;;;;5015933;28;20115;-50
2021/12/01 06:52:34;;;;;;;5.57;4.57;;;2.90;99.90;;;;;;5015374;28;20431;-52
2021/12/01 06:55:03;;;;;;;;;;;2.90;99.90;;;;;;5014230;28;20044;-56
2021/12/01 06:57:29;;;;;;;4.85;4.30;;;2.90;99.90;;;;;;5016757;28;19987;-52
2021/12/01 06:59:56;;;;;;;;;;;2.90;99.90;;;;;;5016342;28;20053;-52
2021/12/01 07:02:23;;;;;;;5.65;4.10;;;2.90;99.90;;;;;;5015316;28;19924;-51
2021/12/01 07:04:50;;;;;;;7.00;4.75;;;2.80;99.90;;;;;;5014143;28;20367;-51
2021/12/01 07:07:16;;;;;;;;;;;2.90;99.90;;;;;;5021927;28;20984;-51
2021/12/01 07:09:45;;;;;;;5.35;4.50;;;2.90;99.90;;;;;;5015242;28;20051;-52
2021/12/01 07:12:12;;;;;;;5.80;4.32;;;2.90;99.90;;;;;;5015120;28;20577;-53
2021/12/01 07:14:39;;;;;;;5.53;4.70;;;2.80;99.90;;;;;;5017773;28;20338;-50
2021/12/01 07:17:07;;;;;;;6.10;4.68;;;2.80;99.90;;;;;;5009255;28;20072;-52
2021/12/01 07:19:34;;;;;;;6.00;4.75;;;2.80;99.90;;;;;;4997743;28;20558;-52
2021/12/01 07:22:00;;;;;;;;;;;2.80;99.90;;;;;;5014858;28;20245;-53
2021/12/01 07:24:29;;;;;;;5.72;4.65;;;2.80;99.90;;;;;;5014650;28;19928;-52
2021/12/01 07:26:56;;;;;;;8.27;4.88;;;2.80;99.90;;;;;;5026701;28;20238;-52
2021/12/01 07:29:24;;;;;;;7.15;4.93;;;2.80;99.90;;;;;;5014540;28;20042;-54
2021/12/01 07:31:52;;;;;;;9.13;6.18;;;2.80;99.90;;;;;;5022839;28;20531;-50
2021/12/01 07:34:19;;;;;;;6.05;4.70;;;2.90;99.90;;;;;;5030755;28;20559;-49
2021/12/01 07:36:45;;;;;;;;;;;2.90;99.90;;;;;;5019688;28;20044;-52
2021/12/01 07:39:12;;;;;;;6.35;5.22;;;2.90;99.90;;;;;;5024366;28;20414;-52
2021/12/01 07:41:39;;;;;;;;;;;3.10;99.90;;;;;;5026538;28;20450;-50
2021/12/01 07:44:06;;;;;;;5.95;5.03;;;3.10;99.90;;;;;;5035924;28;20020;-49
2021/12/01 07:46:32;;;;;;;5.28;4.60;;;3.20;99.90;;;;;;5034215;28;20570;-49
2021/12/01 07:48:59;;;;;;;5.13;4.38;;;3.30;99.90;;;;;;5031140;28;20041;-52
2021/12/01 07:51:26;;;;;;;;;;;3.30;99.90;;;;;;5032968;28;20550;-53
2021/12/01 07:53:55;;;;;;;5.60;5.00;;;3.30;99.90;;;;;;5026279;28;20464;-53
2021/12/01 07:56:22;;;;;;;5.80;4.22;;;3.30;99.90;;;;;;5018548;28;20076;-53
2021/12/01 07:58:48;;;;;;;4.72;4.20;;;3.30;99.90;;;;;;5018089;28;20417;-49
2021/12/01 08:01:15;;;;;;;5.18;4.45;;;3.30;99.90;;;;;;5019092;28;20167;-53
2021/12/01 08:03:42;;;;;;;5.32;4.20;;;3.30;99.90;;;;;;5019290;28;20060;-52
2021/12/01 08:06:09;;;;;;;5.80;4.22;;;3.40;99.90;;;;;;5022160;28;20037;-52
2021/12/01 08:08:36;;;;;;;;;;;3.40;99.90;;;;;;5020813;28;20057;-51
2021/12/01 08:11:02;;;;;;;4.28;3.42;;;3.40;99.90;;;;;;5021032;28;19991;-52
2021/12/01 08:13:29;;;;;;;3.17;2.88;;;3.40;99.90;;;;;;5008413;28;20037;-53
2021/12/01 08:15:57;;;;;;;4.57;2.92;;;3.40;99.90;;;;;;5012996;28;20045;-53
2021/12/01 08:18:24;;;;;;;;;;;3.50;99.90;;;;;;5019826;28;20064;-52
2021/12/01 08:20:50;;;;;;;3.28;2.97;;;3.50;99.90;;;;;;5017878;28;19928;-53
2021/12/01 08:23:17;;;;;;;3.53;2.80;;;3.60;99.90;;;;;;5019386;28;20049;-51
2021/12/01 08:25:45;;;;;;;3.08;2.78;;;3.60;99.90;;;;;;5030283;28;20094;-51
2021/12/01 08:28:12;;;;;;;;;;;3.60;99.90;;;;;;5020608;28;20099;-52
2021/12/01 08:30:39;;;;;;;10.70;3.40;;;3.70;99.90;;;;;;5001104;28;19935;-54
2021/12/01 08:33:05;;;;;;;;;;;3.90;99.90;;;;;;5019702;28;20037;-52
2021/12/01 08:35:32;;;;;;;3.20;2.90;;;4.10;99.90;;;;;;5024991;28;19929;-56
2021/12/01 08:37:59;;;;;;;3.35;2.95;;;4.30;99.90;;;;;;5020861;28;20500;-52
2021/12/01 08:40:26;;;;;;;3.33;2.88;;;4.60;99.90;;;;;;5018047;28;20065;-53
2021/12/01 08:42:53;;;;;;;;;;;4.90;99.90;;;;;;5018463;28;20293;-52
2021/12/01 08:45:20;;;;;;;3.42;2.65;;;5.10;99.90;;;;;;5021875;28;19978;-54
2021/12/01 08:47:48;;;;;;;;;;;5.40;99.90;;;;;;5026358;28;20533;-52
2021/12/01 08:50:16;;;;;;;5.05;2.88;;;5.50;99.90;;;;;;5018172;28;19925;-53
2021/12/01 08:52:45;;;;;;;3.03;2.50;;;5.70;99.90;;;;;;5010107;28;20037;-51
2021/12/01 08:55:11;;;;;;;3.28;2.97;;;5.80;99.90;;;;;;5020253;28;20042;-53
2021/12/01 08:57:42;;;;;;;2.72;2.50;;;5.90;99.90;;;;;;5024815;28;20095;-53
2021/12/01 09:00:10;;;;;;;3.47;2.60;;;6.00;99.90;;;;;;5017993;28;20044;-53
2021/12/01 09:02:37;;;;;;;3.80;2.97;;;6.10;99.90;;;;;;5017367;28;20526;-52
2021/12/01 09:05:04;;;;;;;2.92;2.65;;;6.10;99.90;;;;;;5017900;28;20519;-51
2021/12/01 09:07:31;;;;;;;2.88;2.55;;;6.20;99.90;;;;;;5029052;28;20068;-52
2021/12/01 09:09:58;;;;;;;3.30;2.63;;;6.30;99.90;;;;;;5017012;28;20672;-49
2021/12/01 09:12:24;;;;;;;2.83;2.63;;;6.30;99.90;;;;;;5016675;28;20459;-54
2021/12/01 09:14:52;;;;;;;4.30;2.00;;;6.40;99.90;;;;;;5023240;28;20041;-50
2021/12/01 09:17:19;;;;;;;4.57;2.40;;;6.50;99.90;;;;;;5023901;28;20049;-52
2021/12/01 09:19:46;;;;;;;2.08;1.85;;;6.50;99.90;;;;;;5017078;28;20517;-52
2021/12/01 09:22:13;;;;;;;;;;;6.60;99.90;;;;;;5017624;28;20111;-51
2021/12/01 09:24:40;;;;;;;2.30;2.07;;;6.70;99.90;;;;;;5019346;28;19975;-53
2021/12/01 09:27:06;;;;;;;;;;;6.70;99.90;;;;;;5016240;28;20053;-53
2021/12/01 09:29:34;;;;;;;4.05;1.30;;;6.80;99.90;;;;;;5015371;28;19925;-53
2021/12/01 09:32:02;;;;;;;2.25;2.05;;;6.90;99.90;;;;;;5016905;28;20111;-53
2021/12/01 09:34:29;;;;;;;1.77;1.52;;;7.00;99.90;;;;;;5016867;28;20069;-55
2021/12/01 09:36:56;;;;;;;;;;;7.10;99.90;;;;;;5030007;28;20046;-55
2021/12/01 09:39:25;;;;;;;2.42;1.75;;;7.10;99.90;;;;;;5018179;28;20447;-53
2021/12/01 09:41:52;;;;;;;1.70;1.30;;;7.10;99.90;;;;;;5017131;28;20045;-50
2021/12/01 09:44:19;;;;;;;1.30;1.17;;;7.10;99.90;;;;;;5006871;28;20045;-51
2021/12/01 09:46:45;;;;;;;;;;;7.10;99.90;;;;;;5028980;28;20037;-51
2021/12/01 09:49:12;;;;;;;1.13;0.95;;;7.20;99.90;;;;;;5016665;28;19972;-53
2021/12/01 09:51:39;;;;;;;6.38;1.00;;;7.30;99.90;;;;;;5017304;28;20038;-52
2021/12/01 09:54:06;;;;;;;;;;;7.50;99.90;;;;;;5018501;28;20037;-52
2021/12/01 09:56:33;;;;;;;1.38;0.70;;;7.50;99.90;;;;;;5017873;28;19928;-54
2021/12/01 09:59:00;;;;;;;0.70;0.70;;;7.50;99.90;;;;;;5017947;28;20056;-51
2021/12/01 10:01:28;;;;;;;0.52;0.52;;;7.50;99.90;;;;;;5020798;28;20110;-52
2021/12/01 10:03:55;;;;;;;0.65;0.50;;;7.40;99.90;;;;;;5028385;28;20053;-49
2021/12/01 10:06:24;;;;;;;2.28;0.63;;;7.30;99.90;;;;;;5027961;28;20380;-49
2021/12/01 10:08:57;;;;;;;0.80;0.70;;;7.20;99.90;;;;;;5023484;28;20103;-50
2021/12/01 10:11:27;;;;;;;1.02;0.55;;;7.10;99.90;;;;;;5026518;28;20107;-58
2021/12/01 10:14:18;;;;;;;1.35;1.17;;;7.00;99.90;;;;;;5026032;28;20541;-52
2021/12/01 10:16:50;;;;;;;0.95;0.80;;;7.00;99.90;;;;;;5016767;28;20053;-53
2021/12/01 10:19:17;;;;;;;0.65;0.63;;;6.90;99.90;;;;;;5015950;28;20056;-53
2021/12/01 10:21:48;;;;;;;1.30;0.93;;;6.90;99.90;;;;;;5016849;28;20392;-50
2021/12/01 10:24:26;;;;;;;0.68;0.68;;;6.80;99.90;;;;;;5016895;28;20590;-52
2021/12/01 10:26:58;;;;;;;2.20;0.88;;;6.80;99.90;;;;;;5017033;28;20702;-50
2021/12/01 10:29:35;;;;;;;0.90;0.82;;;6.70;99.90;;;;;;5017710;28;20041;-52
2021/12/01 10:32:07;;;;;;;3.95;1.00;;;6.80;99.90;;;;;;5017530;28;20034;-54
2021/12/01 10:34:49;;;;;;;1.20;1.10;;;6.80;99.90;;;;;;5015974;28;20447;-48
2021/12/01 10:37:31;;;;;;;1.30;0.90;;;6.80;99.90;;;;;;5005050;28;20080;-49
2021/12/01 10:49:09;;;;;;;0.70;0.70;;;7.20;99.90;;;;;;5330942;23;19940;-60
2021/12/01 10:51:38;;;;;;;;;;;7.20;99.90;;;;;;4832746;29;20119;-60
2021/12/01 10:54:12;;;;;;;0.55;0.40;;;7.20;99.90;;;;;;4842866;29;19963;-58
2021/12/01 10:56:39;;;;;;;1.40;0.73;;;7.30;99.90;;;;;;4827764;29;20205;-57
2021/12/01 11:11:12;;;;;;;2.10;0.60;;;7.70;99.90;;;;;;4851540;29;20053;-60
2021/12/01 11:13:45;;;;;;;2.90;1.63;;;8.10;99.90;;;;;;4854458;29;20049;-61
2021/12/01 11:16:14;;;;;;;0.82;0.70;;;8.60;99.90;;;;;;4854947;29;20474;-60
2021/12/01 11:18:49;;;;;;;0.73;0.73;;;9.00;99.90;;;;;;4853655;29;20053;-54
2021/12/01 11:21:23;;;;;;;1.23;0.65;;;9.30;99.90;;;;;;4853954;29;20045;-53
2021/12/01 11:23:52;;;;;;;1.40;0.70;;;9.60;99.90;;;;;;4854112;29;20068;-52
2021/12/01 11:26:26;;;;;;;0.75;0.60;;;9.80;99.90;;;;;;4856369;29;20564;-53
2021/12/01 11:28:55;;;;;;;2.13;1.00;;;9.80;99.90;;;;;;4855120;29;20105;-60
2021/12/01 11:31:28;;;;;;;3.08;0.63;;;9.80;99.90;;;;;;4854653;29;20165;-60
2021/12/01 11:33:58;;;;;;;0.68;0.40;;;9.70;99.90;;;;;;4854674;29;20049;-62
2021/12/01 11:36:28;;;;;;;0.73;0.60;;;9.70;99.90;;;;;;4837891;29;20064;-60
2021/12/01 11:38:58;;;;;;;1.00;0.80;;;9.50;99.90;;;;;;4842846;29;20053;-59
2021/12/01 11:41:28;;;;;;;0.63;0.63;;;9.40;99.90;;;;;;4841027;29;20277;-60
2021/12/01 11:43:56;;;;;;;0.73;0.60;;;9.30;99.90;;;;;;4848361;29;20049;-60
2021/12/01 11:46:23;;;;;;;0.98;0.77;;;9.10;99.90;;;;;;4840609;29;20468;-60
2021/12/01 11:48:51;;;;;;;;;;;9.00;99.90;;;;;;4842150;29;20045;-60
2021/12/01 11:51:24;;;;;;;;;;;8.90;99.90;;;;;;4841870;29;19984;-60
2021/12/01 11:54:15;;;;;;;4.10;0.50;;;8.70;99.90;;;;;;4846883;29;19983;-59
2021/12/01 11:56:55;;;;;;;0.30;0.30;;;8.60;99.90;;;;;;4845496;29;20053;-60
2021/12/01 11:59:26;;;;;;;0.80;0.63;;;8.50;99.90;;;;;;4837269;29;20065;-61
2021/12/01 12:02:13;;;;;;;0.45;0.45;;;8.50;99.90;;;;;;4839615;29;20588;-62
2021/12/01 12:04:48;;;;;;;0.70;0.60;;;8.40;99.90;;;;;;4834217;29;20057;-59
2021/12/01 12:07:16;;;;;;;0.88;0.63;;;8.30;99.90;;;;;;4833661;29;20072;-59
2021/12/01 12:10:13;;;;;;;0.38;0.38;;;8.30;99.90;;;;;;4840169;29;20064;-59
2021/12/01 12:13:05;;;;;;;0.30;0.30;;;8.30;99.90;;;;;;4830660;29;20562;-60
2021/12/01 12:15:42;;;;;;;0.70;0.57;;;8.20;99.90;;;;;;4840537;29;20508;-59
2021/12/01 12:18:11;;;;;;;;;;;8.20;99.90;;;;;;4850729;29;20056;-59
2021/12/01 12:20:53;;;;;;;0.40;0.40;;;8.20;99.90;;;;;;4841711;29;20489;-59
2021/12/01 12:23:31;;;;;;;0.80;0.43;;;8.20;99.90;;;;;;4840740;29;20057;-59
2021/12/01 12:25:58;;;;;;;0.65;0.50;;;8.30;99.90;;;;;;4832122;29;20057;-59
2021/12/01 12:28:39;;;;;;;0.40;0.40;;;8.40;99.90;;;;;;4843132;29;20057;-59
2021/12/01 12:31:18;;;;;;;0.28;0.20;;;8.40;99.90;;;;;;4831402;29;20049;-59
2021/12/01 12:34:03;;;;;;;0.90;0.40;;;8.40;99.90;;;;;;4844302;29;20042;-59
2021/12/01 12:36:37;;;;;;;0.47;0.47;;;8.50;99.90;;;;;;4838607;29;20448;-59
2021/12/01 12:39:16;;;;;;;0.57;0.57;;;8.40;99.90;;;;;;4843848;29;20049;-59
2021/12/01 12:41:54;;;;;;;0.30;0.30;;;8.40;99.90;;;;;;4843992;29;20452;-59
2021/12/01 12:44:34;;;;;;;0.70;0.60;;;8.30;99.90;;;;;;4843797;29;20279;-59
2021/12/01 12:47:30;;;;;;;0.30;0.30;;;8.30;99.90;;;;;;4844127;29;20044;-59
2021/12/01 12:50:10;;;;;;;0.55;0.30;;;8.20;99.90;;;;;;4837159;29;20034;-59
2021/12/01 12:52:39;;;;;;;0.47;0.32;;;8.30;99.90;;;;;;4843360;29;20037;-59
2021/12/01 12:55:20;;;;;;;0.30;0.30;;;8.30;99.90;;;;;;4843294;29;20041;-59
2021/12/01 12:58:05;;;;;;;0.32;0.32;;;8.20;99.90;;;;;;4844198;29;20069;-59
2021/12/01 13:00:53;;;;;;;0.73;0.57;;;8.20;99.90;;;;;;4843057;29;20072;-59
2021/12/01 13:03:22;;;;;;;0.40;0.40;;;8.20;99.90;;;;;;4843395;29;20077;-59
2021/12/01 13:05:55;;;;;;;2.58;0.43;;;8.20;99.90;;;;;;4843481;29;20141;-59
2021/12/01 13:08:46;;;;;;;0.40;0.40;;;8.10;99.90;;;;;;4841513;29;20078;-59
2021/12/01 13:11:24;;;;;;;0.57;0.30;;;8.10;99.90;;;;;;4842849;29;20053;-59
2021/12/01 13:13:56;;;;;;;0.47;0.30;;;8.00;99.90;;;;;;4839106;29;20070;-57
2021/12/01 13:16:25;;;;;;;0.65;0.40;;;7.90;99.90;;;;;;4843106;29;20054;-59
2021/12/01 13:18:52;;;;;;;0.20;0.20;;;7.80;99.90;;;;;;4851841;29;20050;-58
2021/12/01 13:21:19;;;;;;;;;;;7.70;99.90;;;;;;4843903;29;20057;-58
2021/12/01 13:23:48;;;;;;;0.40;0.30;;;7.60;99.90;;;;;;4843376;29;19964;-58
2021/12/01 13:26:18;;;;;;;3.53;0.40;;;7.50;99.90;;;;;;4843152;29;20049;-58
2021/12/01 13:28:44;;;;;;;0.20;0.10;;;7.40;99.90;;;;;;4842695;29;20345;-58
2021/12/01 13:31:24;;;;;;;0.30;0.30;;;7.30;99.90;;;;;;4842983;29;20045;-58
2021/12/01 13:34:07;;;;;;;0.32;0.32;;;7.20;99.90;;;;;;4842867;29;20060;-58
2021/12/01 13:36:47;;;;;;;0.38;0.35;;;7.10;99.90;;;;;;4842910;29;20903;-58
2021/12/01 13:39:15;;;;;;;0.20;0.20;;;7.00;99.90;;;;;;4842388;29;20041;-58
2021/12/01 13:41:57;;;;;;;0.32;0.30;;;7.00;99.90;;;;;;4843255;29;20535;-58
2021/12/01 13:44:34;;;;;;;2.17;0.28;;;7.00;99.90;;;;;;4842077;29;20046;-58
2021/12/01 13:47:07;;;;;;;0.55;0.35;;;7.00;99.90;;;;;;4842669;29;20422;-58
2021/12/01 13:49:39;;;;;;;0.85;0.80;;;6.90;99.90;;;;;;4842394;29;20053;-58